Flugplatz Biberach a.d. Riß

Für EDMB sind keine METAR/TAF Berichte vorhanden.
Es werden die Flugwettermeldungen vom Flugplatz Laupheim Airport in 16 km Entfernung angezeigt.

Bericht für ETHL

vom 14.08. um 07:20 UTC

Wind 9 kt aus 230°

Sichtweite 10 km oder mehr

aufgebrochene Bewölkung in 10000 ft

aufgelockert bewölkt in 14000 ft

Temperatur 19.0°C

Taupunkt 16.0°C

Luftfeuchtigkeit 83%

Luftdruck 1016 hPa

ETHL 140720Z 23009KT 9999 BKN100 SCT140 19/16 Q1016 BLU BLU

Prognose für ETHL

vom 14.08. um 07:20 UTC

Zwischen 08:00 UTC und 17:00 UTC

Wind 7 kt aus 240°

Sichtweite 10 km oder mehr

keine signifikanten Wettererscheinungen

gering bewölkt in 6000 ft

aufgebrochene Bewölkung in 10000 ft


Zwischen 08:00 UTC und 17:00 UTC zeitweise

Wind 15 kt aus 250°

Sichtweite 8000 m

schwacher Regenschauer

aufgelockert bewölkt in 1000 ft

aufgebrochene Bewölkung in 2500 ft


Zwischen 11:00 UTC und 17:00 UTC mit einer Wahrscheinlichkeit von 30%

Wind 12 kt aus 250° in Böen 22 kt

Sichtweite 4500 m

Code: TSRA

aufgelockert bewölkt in 800 ft

aufgebrochene Bewölkung in 2000 ft

TAF ETHL 140720Z 1408/1417 24007KT 9999 NSW FEW060 BKN100 TEMPO 1408/1417 25015KT 8000 -SHRA SCT010 BKN025TCU PROB30 1411/1417 25012G22KT 4500 TSRA SCT008 BKN020CB
Impressum